createdAt,value
2018-01-03T00:00:15.632Z,4.98
2018-01-03T00:02:43.070Z,5.02
2018-01-03T00:05:10.538Z,5.06
2018-01-03T00:07:38.047Z,4.99
2018-01-03T00:10:05.534Z,5.02
2018-01-03T00:12:35.303Z,4.98
2018-01-03T00:15:02.719Z,4.98
2018-01-03T00:17:30.184Z,4.94
2018-01-03T00:19:57.640Z,4.94
2018-01-03T00:22:25.083Z,4.95
2018-01-03T00:24:53.331Z,4.91
2018-01-03T00:27:20.772Z,4.85
2018-01-03T00:29:48.246Z,4.84
2018-01-03T00:32:16.783Z,4.72
2018-01-03T00:34:44.266Z,4.76
2018-01-03T00:37:11.752Z,4.68
2018-01-03T00:39:39.268Z,4.90
2018-01-03T00:42:06.718Z,4.84
2018-01-03T00:44:36.857Z,4.75
2018-01-03T00:47:04.315Z,4.66
2018-01-03T00:49:31.747Z,4.69
2018-01-03T00:51:59.187Z,4.75
2018-01-03T00:54:27.677Z,4.75
2018-01-03T00:56:55.135Z,4.83
2018-01-03T00:59:22.576Z,4.77
2018-01-03T01:01:50.054Z,4.69
2018-01-03T01:04:18.396Z,4.74
2018-01-03T01:06:46.132Z,4.56
2018-01-03T01:09:13.603Z,4.41
2018-01-03T01:11:41.090Z,4.32
2018-01-03T01:14:08.563Z,4.25
2018-01-03T01:16:36.015Z,4.36
2018-01-03T01:19:04.091Z,4.34
2018-01-03T01:21:31.558Z,4.24
2018-01-03T01:23:58.999Z,4.25
2018-01-03T01:26:26.453Z,4.32
2018-01-03T01:28:53.913Z,4.16
2018-01-03T01:31:21.399Z,4.16
2018-01-03T01:33:48.869Z,4.18
2018-01-03T01:36:16.343Z,4.19
2018-01-03T01:38:43.796Z,4.12
2018-01-03T01:41:11.253Z,4.15
2018-01-03T01:43:38.712Z,4.15
2018-01-03T01:46:06.175Z,3.94
2018-01-03T01:48:33.616Z,3.84
2018-01-03T01:51:01.087Z,3.70
2018-01-03T01:53:28.532Z,3.66
2018-01-03T01:55:55.979Z,3.60
2018-01-03T01:58:23.442Z,3.50
2018-01-03T02:00:50.909Z,3.59
2018-01-03T02:03:19.300Z,3.58
2018-01-03T02:05:46.737Z,3.52
2018-01-03T02:08:14.185Z,3.49
2018-01-03T02:10:41.662Z,3.61
2018-01-03T02:13:09.126Z,3.72
2018-01-03T02:15:36.594Z,3.66
2018-01-03T02:18:04.050Z,3.61
2018-01-03T02:20:31.662Z,3.66
2018-01-03T02:22:59.313Z,3.73
2018-01-03T02:25:26.774Z,3.77
2018-01-03T02:27:54.244Z,3.75
2018-01-03T02:30:21.692Z,3.74
2018-01-03T02:32:49.156Z,3.68
2018-01-03T02:35:16.608Z,3.77
2018-01-03T02:37:44.067Z,3.67
2018-01-03T02:40:11.603Z,3.57
2018-01-03T02:42:39.089Z,3.50
2018-01-03T02:45:06.550Z,3.40
2018-01-03T02:47:34.007Z,3.34
2018-01-03T02:50:01.458Z,3.35
2018-01-03T02:52:28.934Z,3.28
2018-01-03T02:54:56.447Z,3.37
2018-01-03T02:57:23.903Z,3.28
2018-01-03T02:59:51.351Z,3.22
2018-01-03T03:02:18.805Z,3.24
2018-01-03T03:04:46.383Z,3.19
2018-01-03T03:07:13.823Z,3.21
2018-01-03T03:09:41.275Z,3.14
2018-01-03T03:12:08.726Z,3.09
2018-01-03T03:14:36.189Z,3.04
2018-01-03T03:17:03.714Z,3.07
2018-01-03T03:19:31.165Z,3.23
2018-01-03T03:21:58.622Z,3.42
2018-01-03T03:24:27.874Z,3.43
2018-01-03T03:26:55.322Z,3.38
2018-01-03T03:29:22.786Z,3.31
2018-01-03T03:31:50.242Z,3.21
2018-01-03T03:34:17.754Z,3.10
2018-01-03T03:36:45.211Z,3.19
2018-01-03T03:39:12.663Z,3.16
2018-01-03T03:41:40.147Z,3.20
2018-01-03T03:44:07.587Z,3.22
2018-01-03T03:46:35.061Z,3.28
2018-01-03T03:49:02.522Z,3.30
2018-01-03T03:51:30.612Z,3.21
2018-01-03T03:53:58.058Z,3.18
2018-01-03T03:56:25.556Z,3.22
2018-01-03T03:58:53.012Z,3.21
2018-01-03T04:01:20.458Z,3.22
2018-01-03T04:03:47.907Z,3.14
2018-01-03T04:06:15.342Z,3.04
2018-01-03T04:08:42.778Z,2.93
2018-01-03T04:11:10.257Z,2.85
2018-01-03T04:13:37.705Z,2.87
2018-01-03T04:16:05.177Z,2.89
2018-01-03T04:18:32.626Z,2.88
2018-01-03T04:21:00.083Z,2.84
2018-01-03T04:23:27.536Z,2.68
2018-01-03T04:25:54.980Z,2.56
2018-01-03T04:28:22.436Z,2.39
2018-01-03T04:30:49.906Z,2.25
2018-01-03T04:33:19.074Z,2.25
2018-01-03T04:35:46.519Z,2.28
2018-01-03T04:38:13.964Z,2.37
2018-01-03T04:40:41.415Z,2.35
2018-01-03T04:43:08.867Z,2.25
2018-01-03T04:45:36.306Z,2.18
2018-01-03T04:48:03.762Z,2.37
2018-01-03T04:50:31.243Z,2.42
2018-01-03T04:52:59.550Z,2.39
2018-01-03T04:55:27.038Z,2.42
2018-01-03T04:57:54.495Z,2.35
2018-01-03T05:00:21.936Z,2.30
2018-01-03T05:02:49.399Z,2.26
2018-01-03T05:05:16.862Z,2.32
2018-01-03T05:07:44.310Z,2.29
2018-01-03T05:10:11.803Z,2.35
2018-01-03T05:12:39.259Z,2.38
2018-01-03T05:15:06.692Z,2.51
2018-01-03T05:17:34.122Z,2.49
2018-01-03T05:20:01.607Z,2.54
2018-01-03T05:22:29.077Z,2.71
2018-01-03T05:24:56.504Z,2.84
2018-01-03T05:27:23.954Z,2.82
2018-01-03T05:29:51.419Z,2.91
2018-01-03T05:32:18.856Z,2.93
2018-01-03T05:34:46.312Z,2.91
2018-01-03T05:37:13.787Z,2.91
2018-01-03T05:39:41.237Z,2.92
2018-01-03T05:42:08.685Z,2.99
2018-01-03T05:44:36.895Z,3.06
2018-01-03T05:47:04.361Z,3.08
2018-01-03T05:49:31.814Z,3.00
2018-01-03T05:51:59.247Z,2.97
2018-01-03T05:54:29.235Z,2.93
2018-01-03T05:56:56.706Z,2.91
2018-01-03T05:59:24.235Z,3.06
2018-01-03T06:01:51.683Z,3.13
2018-01-03T06:04:19.153Z,3.10
2018-01-03T06:06:46.722Z,3.11
2018-01-03T06:09:14.242Z,3.18
2018-01-03T06:11:41.679Z,3.24
2018-01-03T06:14:09.131Z,3.35
2018-01-03T06:16:36.588Z,3.44
2018-01-03T06:19:04.627Z,3.36
2018-01-03T06:21:32.091Z,3.31
2018-01-03T06:23:59.566Z,3.37
2018-01-03T06:26:27.010Z,3.33
2018-01-03T06:28:54.563Z,3.34
2018-01-03T06:31:21.955Z,3.40
2018-01-03T06:33:49.413Z,3.44
2018-01-03T06:36:16.871Z,3.45
2018-01-03T06:38:44.331Z,3.39
2018-01-03T06:41:13.239Z,3.38
2018-01-03T06:43:40.711Z,3.38
2018-01-03T06:46:08.159Z,3.35
2018-01-03T06:48:35.598Z,3.41
2018-01-03T06:51:03.052Z,3.38
2018-01-03T06:53:30.508Z,3.36
2018-01-03T06:55:57.976Z,3.37
2018-01-03T06:58:25.422Z,3.30
2018-01-03T07:00:52.856Z,3.36
2018-01-03T07:03:20.310Z,3.32
2018-01-03T07:05:47.758Z,3.45
2018-01-03T07:08:16.659Z,3.46
2018-01-03T07:10:44.130Z,3.45
2018-01-03T07:13:11.710Z,3.46
2018-01-03T07:15:39.178Z,3.45
2018-01-03T07:18:06.619Z,3.57
2018-01-03T07:20:35.242Z,3.57
2018-01-03T07:23:02.715Z,3.62
2018-01-03T07:25:30.164Z,3.68
2018-01-03T07:27:57.672Z,3.70
2018-01-03T07:30:25.154Z,3.78
2018-01-03T07:32:52.615Z,3.88
2018-01-03T07:35:20.128Z,3.99
2018-01-03T07:37:47.570Z,4.24
2018-01-03T07:40:16.000Z,4.24
2018-01-03T07:42:43.502Z,4.25
2018-01-03T07:45:10.950Z,4.33
2018-01-03T07:47:38.445Z,4.29
2018-01-03T07:50:05.952Z,4.28
2018-01-03T07:52:33.392Z,4.42
2018-01-03T07:55:00.875Z,4.52
2018-01-03T07:57:28.373Z,4.61
2018-01-03T07:59:55.908Z,4.69
2018-01-03T08:02:23.364Z,4.73
2018-01-03T08:04:50.846Z,4.82
2018-01-03T08:07:18.499Z,4.88
2018-01-03T08:09:45.953Z,4.94
2018-01-03T08:12:13.427Z,5.08
2018-01-03T08:14:40.878Z,5.11
2018-01-03T08:17:08.340Z,5.04
2018-01-03T08:19:35.787Z,5.10
2018-01-03T08:22:03.255Z,4.94
2018-01-03T08:24:30.788Z,4.90
2018-01-03T08:26:58.241Z,4.76
2018-01-03T08:29:25.692Z,4.75
2018-01-03T08:31:53.164Z,4.59
2018-01-03T08:34:20.640Z,4.56
2018-01-03T08:36:48.143Z,4.39
2018-01-03T08:39:17.122Z,4.26
2018-01-03T08:41:44.596Z,4.30
2018-01-03T08:44:12.056Z,4.30
2018-01-03T08:46:39.578Z,4.34
2018-01-03T08:49:07.028Z,4.38
2018-01-03T08:51:34.470Z,4.43
2018-01-03T08:54:01.971Z,4.50
2018-01-03T08:56:29.449Z,4.41
2018-01-03T08:58:56.912Z,4.50
2018-01-03T09:01:24.377Z,4.52
2018-01-03T09:03:51.841Z,4.68
2018-01-03T09:06:19.282Z,4.70
2018-01-03T09:08:46.755Z,4.66
2018-01-03T09:11:14.206Z,4.76
2018-01-03T09:13:41.675Z,4.66
2018-01-03T09:16:09.135Z,4.57
2018-01-03T09:18:36.643Z,4.59
2018-01-03T09:21:04.098Z,4.54
2018-01-03T09:23:31.539Z,4.44
2018-01-03T09:25:58.981Z,4.46
2018-01-03T09:28:26.466Z,4.55
2018-01-03T09:30:53.919Z,4.50
2018-01-03T09:33:21.375Z,4.52
2018-01-03T09:35:48.831Z,4.50
2018-01-03T09:38:16.314Z,4.59
2018-01-03T09:40:44.173Z,4.62
2018-01-03T09:43:11.619Z,4.61
2018-01-03T09:45:39.056Z,4.61
2018-01-03T09:48:06.514Z,4.70
2018-01-03T09:50:33.957Z,4.60
2018-01-03T09:53:01.412Z,4.51
2018-01-03T09:55:28.891Z,4.54
2018-01-03T09:57:56.340Z,4.46
2018-01-03T10:00:23.884Z,4.50
2018-01-03T10:02:51.351Z,4.48
2018-01-03T10:05:18.783Z,4.45
2018-01-03T10:07:46.273Z,4.42
2018-01-03T10:10:14.230Z,4.56
2018-01-03T10:12:41.672Z,4.59
2018-01-03T10:15:09.128Z,4.76
2018-01-03T10:17:36.596Z,4.91
2018-01-03T10:20:04.458Z,5.07
2018-01-03T10:22:33.453Z,5.07
2018-01-03T10:25:00.927Z,5.10
2018-01-03T10:27:28.388Z,5.28
2018-01-03T10:29:55.851Z,5.50
2018-01-03T10:32:23.372Z,5.84
2018-01-03T10:34:50.823Z,6.01
2018-01-03T10:37:18.310Z,6.15
2018-01-03T10:39:45.777Z,6.15
2018-01-03T10:42:13.239Z,6.21
2018-01-03T10:44:41.488Z,6.14
2018-01-03T10:47:09.095Z,6.32
2018-01-03T10:49:36.547Z,6.49
2018-01-03T10:52:04.000Z,6.50
2018-01-03T10:54:31.456Z,6.67
2018-01-03T10:56:58.891Z,6.93
2018-01-03T10:59:26.403Z,6.89
2018-01-03T11:01:53.846Z,6.85
2018-01-03T11:04:21.354Z,7.04
2018-01-03T11:06:48.854Z,6.93
2018-01-03T11:09:16.599Z,6.77
2018-01-03T11:11:44.042Z,6.73
2018-01-03T11:14:11.541Z,6.88
2018-01-03T11:16:39.164Z,6.97
2018-01-03T11:19:06.655Z,7.02
2018-01-03T11:21:34.099Z,6.96
2018-01-03T11:24:01.566Z,6.95
2018-01-03T11:26:29.094Z,6.99
2018-01-03T11:28:56.731Z,6.97
2018-01-03T11:31:24.204Z,6.91
2018-01-03T11:33:51.688Z,6.85
2018-01-03T11:36:19.155Z,6.93
2018-01-03T11:38:46.663Z,6.83
2018-01-03T11:41:14.207Z,7.02
2018-01-03T11:43:41.688Z,7.05
2018-01-03T11:46:09.170Z,6.97
2018-01-03T11:48:36.653Z,6.91
2018-01-03T11:51:04.242Z,6.83
2018-01-03T11:53:31.769Z,6.67
2018-01-03T11:55:59.305Z,6.52
2018-01-03T11:58:26.791Z,6.51
2018-01-03T12:00:54.263Z,6.58
2018-01-03T12:03:21.728Z,7.17
2018-01-03T12:05:49.243Z,8.01
2018-01-03T12:08:16.795Z,8.54
2018-01-03T12:10:45.543Z,8.65
2018-01-03T12:13:13.011Z,8.17
2018-01-03T12:15:40.499Z,7.77
2018-01-03T12:18:07.988Z,7.47
2018-01-03T12:20:35.499Z,7.27
2018-01-03T12:23:04.676Z,6.91
2018-01-03T12:25:32.168Z,6.77
2018-01-03T12:30:32.415Z,6.92
2018-01-03T12:33:00.451Z,6.86
2018-01-03T12:35:27.928Z,6.91
2018-01-03T12:37:55.426Z,7.01
2018-01-03T12:40:22.904Z,6.87
2018-01-03T12:42:50.445Z,6.67
2018-01-03T12:45:18.039Z,6.60
2018-01-03T12:47:45.514Z,6.48
2018-01-03T12:50:13.000Z,6.42
2018-01-03T12:52:40.487Z,6.31
2018-01-03T12:55:07.951Z,6.32
2018-01-03T12:57:35.408Z,6.26
2018-01-03T13:00:02.900Z,6.24
2018-01-03T13:02:30.382Z,6.21
2018-01-03T13:04:57.915Z,6.24
2018-01-03T13:07:25.410Z,6.30
2018-01-03T13:09:52.912Z,6.38
2018-01-03T13:12:20.360Z,6.46
2018-01-03T13:14:47.816Z,6.56
2018-01-03T13:17:15.268Z,6.77
2018-01-03T13:19:42.789Z,6.89
2018-01-03T13:22:10.267Z,6.97
2018-01-03T13:24:37.737Z,7.35
2018-01-03T13:27:05.632Z,7.53
2018-01-03T13:29:33.138Z,7.99
2018-01-03T13:32:00.620Z,8.15
2018-01-03T13:34:28.183Z,8.30
2018-01-03T13:36:55.655Z,8.52
2018-01-03T13:39:23.150Z,8.55
2018-01-03T13:41:50.600Z,8.63
2018-01-03T13:44:20.997Z,8.72
2018-01-03T13:46:48.441Z,8.71
2018-01-03T13:49:15.903Z,8.68
2018-01-03T13:51:43.402Z,8.76
2018-01-03T13:54:10.863Z,8.76
2018-01-03T13:56:38.302Z,8.76
2018-01-03T13:59:05.782Z,8.80
2018-01-03T14:14:28.562Z,8.55
2018-01-03T14:16:56.003Z,8.59
2018-01-03T14:19:23.463Z,8.50
2018-01-03T14:21:50.941Z,8.54
2018-01-03T14:24:18.406Z,8.54
2018-01-03T14:26:45.869Z,8.48
2018-01-03T14:29:13.331Z,8.48
2018-01-03T14:31:40.853Z,8.53
2018-01-03T14:34:08.293Z,8.46
2018-01-03T14:36:35.760Z,8.42
2018-01-03T14:39:03.247Z,8.36
2018-01-03T14:41:30.719Z,8.42
2018-01-03T14:43:58.207Z,8.29
2018-01-03T14:46:25.653Z,8.21
2018-01-03T14:48:53.182Z,8.49
2018-01-03T14:51:20.639Z,8.52
2018-01-03T14:53:48.080Z,8.60
2018-01-03T14:56:17.247Z,8.61
2018-01-03T14:58:44.701Z,8.56
2018-01-03T15:01:12.159Z,8.46
2018-01-03T15:03:39.615Z,8.62
2018-01-03T15:06:07.048Z,8.55
2018-01-03T15:08:34.934Z,8.42
2018-01-03T15:11:02.476Z,8.46
2018-01-03T15:13:29.910Z,8.49
2018-01-03T15:15:57.358Z,8.39
2018-01-03T15:18:25.042Z,8.37
2018-01-03T15:20:52.514Z,8.29
2018-01-03T15:23:20.001Z,8.26
2018-01-03T15:25:47.447Z,8.18
2018-01-03T15:28:16.702Z,8.16
2018-01-03T15:30:44.203Z,8.30
2018-01-03T15:33:11.683Z,8.14
2018-01-03T15:35:39.196Z,8.12
2018-01-03T15:38:06.660Z,8.06
2018-01-03T15:40:34.675Z,8.02
2018-01-03T15:43:02.136Z,7.99
2018-01-03T15:45:29.604Z,7.95
2018-01-03T15:47:57.107Z,8.01
2018-01-03T15:50:24.616Z,8.05
2018-01-03T15:52:52.075Z,8.04
2018-01-03T15:55:20.279Z,8.11
2018-01-03T15:57:47.770Z,8.09
2018-01-03T16:00:15.260Z,8.03
2018-01-03T16:02:42.699Z,8.03
2018-01-03T16:05:10.231Z,8.04
2018-01-03T16:07:37.716Z,7.99
2018-01-03T16:10:05.184Z,7.96
2018-01-03T16:12:32.640Z,7.96
2018-01-03T16:15:00.165Z,7.83
2018-01-03T16:17:27.654Z,7.78
2018-01-03T16:19:56.697Z,7.85
2018-01-03T16:22:24.207Z,7.74
2018-01-03T16:24:51.704Z,7.69
2018-01-03T16:27:19.200Z,7.74
2018-01-03T16:29:46.675Z,7.76
2018-01-03T16:32:14.159Z,7.74
2018-01-03T16:34:41.620Z,7.71
2018-01-03T16:37:09.074Z,7.74
2018-01-03T16:39:37.072Z,7.74
2018-01-03T16:42:04.562Z,7.75
2018-01-03T16:44:32.091Z,7.74
2018-01-03T16:46:59.644Z,7.71
2018-01-03T16:49:27.118Z,7.67
2018-01-03T16:52:00.033Z,7.68
2018-01-03T16:54:27.803Z,7.74
2018-01-03T16:56:55.414Z,7.72
2018-01-03T16:59:22.927Z,7.74
2018-01-03T17:01:51.054Z,7.76
2018-01-03T17:04:18.619Z,7.70
2018-01-03T17:06:47.157Z,7.74
2018-01-03T17:09:14.726Z,7.67
2018-01-03T17:11:42.266Z,7.63
2018-01-03T17:14:09.730Z,7.66
2018-01-03T17:16:37.186Z,7.61
2018-01-03T17:19:04.662Z,7.67
2018-01-03T17:21:32.111Z,7.63
2018-01-03T17:23:59.583Z,7.63
2018-01-03T17:26:27.060Z,7.62
2018-01-03T17:28:54.514Z,7.58
2018-01-03T17:31:21.980Z,7.55
2018-01-03T17:33:49.461Z,7.53
2018-01-03T17:36:16.928Z,7.54
2018-01-03T17:38:44.391Z,7.48
2018-01-03T17:41:11.830Z,7.44
2018-01-03T17:43:39.295Z,7.44
2018-01-03T17:46:06.755Z,7.47
2018-01-03T17:48:34.298Z,7.41
2018-01-03T17:51:01.779Z,7.41
2018-01-03T17:53:29.266Z,7.47
2018-01-03T17:55:56.846Z,7.44
2018-01-03T17:58:24.373Z,7.40
2018-01-03T18:00:51.845Z,7.38
2018-01-03T18:03:19.304Z,7.39
2018-01-03T18:05:46.778Z,7.45
2018-01-03T18:08:14.256Z,7.51
2018-01-03T18:10:41.754Z,7.49
2018-01-03T18:13:09.211Z,7.49
2018-01-03T18:15:36.720Z,7.47
2018-01-03T18:18:05.170Z,7.46
2018-01-03T18:20:32.767Z,7.54
2018-01-03T18:23:00.223Z,7.50
2018-01-03T18:25:27.785Z,7.49
2018-01-03T18:27:55.322Z,7.43
2018-01-03T18:30:22.824Z,7.41
2018-01-03T18:32:50.286Z,7.39
2018-01-03T18:35:17.722Z,7.38
2018-01-03T18:37:45.580Z,7.32
2018-01-03T18:40:13.023Z,7.32
2018-01-03T18:42:40.484Z,7.33
2018-01-03T18:45:07.972Z,7.40
2018-01-03T18:47:35.428Z,7.40
2018-01-03T18:50:02.957Z,7.45
2018-01-03T18:52:30.424Z,7.41
2018-01-03T18:54:57.894Z,7.42
2018-01-03T18:57:25.451Z,7.36
2018-01-03T18:59:52.959Z,7.35
2018-01-03T19:02:20.459Z,7.33
2018-01-03T19:04:47.952Z,7.31
2018-01-03T19:07:15.462Z,7.32
2018-01-03T19:09:42.915Z,7.33
2018-01-03T19:12:10.435Z,7.42
2018-01-03T19:17:11.712Z,7.34
2018-01-03T19:19:39.223Z,7.36
2018-01-03T19:22:06.675Z,7.32
2018-01-03T19:24:34.154Z,7.26
2018-01-03T19:27:01.638Z,7.23
2018-01-03T19:29:29.166Z,7.44
2018-01-03T19:31:56.664Z,7.36
2018-01-03T19:34:24.269Z,7.35
2018-01-03T19:36:51.755Z,7.43
2018-01-03T19:39:19.229Z,7.39
2018-01-03T19:41:46.747Z,7.39
2018-01-03T19:44:14.350Z,7.33
2018-01-03T19:46:41.813Z,7.29
2018-01-03T19:49:09.710Z,7.44
2018-01-03T19:51:37.310Z,7.42
2018-01-03T19:54:04.866Z,7.38
2018-01-03T19:56:33.274Z,7.41
2018-01-03T19:59:00.919Z,7.35
2018-01-03T20:01:28.512Z,7.42
2018-01-03T20:03:56.009Z,7.35
2018-01-03T20:06:24.160Z,7.39
2018-01-03T20:08:51.834Z,7.45
2018-01-03T20:11:19.344Z,7.43
2018-01-03T20:13:47.068Z,7.39
2018-01-03T20:16:14.737Z,7.36
2018-01-03T20:18:42.264Z,7.43
2018-01-03T20:21:09.966Z,7.48
2018-01-03T20:23:37.993Z,7.52
2018-01-03T20:26:05.730Z,7.49
2018-01-03T20:28:33.340Z,7.53
2018-01-03T20:31:00.903Z,7.56
2018-01-03T20:33:28.382Z,7.53
2018-01-03T20:35:56.011Z,7.57
2018-01-03T20:38:23.776Z,7.53
2018-01-03T20:40:51.574Z,7.57
2018-01-03T20:43:19.361Z,7.58
2018-01-03T20:45:47.946Z,7.62
2018-01-03T20:48:15.752Z,7.54
2018-01-03T20:50:43.608Z,7.59
2018-01-03T20:53:11.249Z,7.62
2018-01-03T20:55:39.004Z,7.68
2018-01-03T20:58:06.553Z,7.71
2018-01-03T21:00:34.150Z,7.70
2018-01-03T21:03:01.783Z,7.72
2018-01-03T21:05:29.500Z,7.76
2018-01-03T21:07:57.256Z,7.81
2018-01-03T21:10:24.985Z,7.77
2018-01-03T21:12:52.675Z,7.74
2018-01-03T21:15:20.235Z,7.82
2018-01-03T21:17:47.755Z,7.81
2018-01-03T21:20:21.163Z,7.83
2018-01-03T21:22:49.608Z,7.96
2018-01-03T21:25:17.147Z,7.86
2018-01-03T21:27:44.928Z,8.02
2018-01-03T21:30:12.527Z,8.07
2018-01-03T21:32:40.072Z,8.10
2018-01-03T21:35:07.587Z,8.15
2018-01-03T21:37:35.129Z,8.18
2018-01-03T21:40:02.602Z,8.17
2018-01-03T21:42:30.079Z,8.26
2018-01-03T21:44:57.581Z,8.20
2018-01-03T21:47:25.124Z,8.10
2018-01-03T21:49:53.145Z,8.14
2018-01-03T21:52:20.702Z,8.17
2018-01-03T21:54:48.202Z,8.25
2018-01-03T21:57:17.036Z,8.19
2018-01-03T21:59:44.529Z,8.13
2018-01-03T22:02:12.050Z,8.12
2018-01-03T22:04:39.545Z,8.28
2018-01-03T22:07:07.203Z,8.33
2018-01-03T22:09:34.664Z,8.28
2018-01-03T22:12:02.134Z,8.32
2018-01-03T22:14:29.659Z,8.39
2018-01-03T22:16:57.163Z,8.44
2018-01-03T22:19:24.637Z,8.46
2018-01-03T22:21:52.148Z,8.53
2018-01-03T22:24:19.659Z,8.48
2018-01-03T22:26:47.164Z,8.47
2018-01-03T22:29:14.717Z,8.42
2018-01-03T22:31:42.258Z,8.45
2018-01-03T22:34:09.757Z,8.46
2018-01-03T22:36:37.235Z,8.40
2018-01-03T22:39:04.781Z,8.38
2018-01-03T22:41:32.244Z,8.39
2018-01-03T22:43:59.724Z,8.33
2018-01-03T22:46:27.204Z,8.33
2018-01-03T22:48:54.668Z,8.30
2018-01-03T22:51:22.163Z,8.29
2018-01-03T22:53:49.687Z,8.25
2018-01-03T22:56:17.207Z,8.25
2018-01-03T22:58:44.675Z,8.36
2018-01-03T23:01:12.155Z,8.42
2018-01-03T23:03:39.695Z,8.43
2018-01-03T23:06:07.205Z,8.47
2018-01-03T23:08:34.867Z,8.39
2018-01-03T23:11:02.349Z,8.34
2018-01-03T23:13:29.851Z,8.38
2018-01-03T23:15:57.345Z,8.42
2018-01-03T23:18:24.930Z,8.48
2018-01-03T23:20:52.397Z,8.52
2018-01-03T23:23:19.898Z,8.56
2018-01-03T23:25:47.383Z,8.57
2018-01-03T23:28:14.865Z,8.57
2018-01-03T23:30:42.329Z,8.60
2018-01-03T23:33:09.876Z,8.61
2018-01-03T23:35:37.364Z,8.58
2018-01-03T23:38:04.840Z,8.61
2018-01-03T23:40:32.315Z,8.52
2018-01-03T23:42:59.797Z,8.61
2018-01-03T23:45:27.304Z,8.54
2018-01-03T23:47:54.804Z,8.50
2018-01-03T23:50:22.275Z,8.49
2018-01-03T23:52:49.755Z,8.53
2018-01-03T23:55:17.258Z,8.55
2018-01-03T23:57:44.772Z,8.49
